Time;durP1;ratioP1;P1;durP2;ratioP2;P2;SDS_P1;SDS_P2;PMS_P1;PMS_P2;Temp;Humidity;BMP_temperature;BMP_pressure;BME280_temperature;BME280_humidity;BME280_pressure;Samples;Min_cycle;Max_cycle;Signal;HPM_P1;HPM_P2
2023/09/21 00:01:18;;;;;;;3.45;2.20;;;;;;;;;;4994184;28;20029;-75
2023/09/21 00:03:45;;;;;;;3.25;2.10;;;;;;;;;;4994400;28;20015;-75
2023/09/21 00:06:13;;;;;;;4.30;2.30;;;;;;;;;;4994032;28;20030;-75
2023/09/21 00:08:40;;;;;;;3.38;2.30;;;;;;;;;;4994084;28;20042;-75
2023/09/21 00:11:06;;;;;;;4.30;2.30;;;;;;;;;;4994101;28;20057;-75
2023/09/21 00:13:33;;;;;;;3.83;2.53;;;;;;;;;;4994000;28;20022;-75
2023/09/21 00:16:02;;;;;;;5.47;2.08;;;;;;;;;;4993862;28;20034;-75
2023/09/21 00:18:29;;;;;;;3.63;2.40;;;;;;;;;;4993849;28;20025;-75
2023/09/21 00:20:56;;;;;;;3.10;2.00;;;;;;;;;;4993968;28;20053;-75
2023/09/21 00:23:25;;;;;;;4.60;2.45;;;;;;;;;;4993812;28;20027;-75
2023/09/21 00:25:58;;;;;;;3.63;2.30;;;;;;;;;;4993817;28;20026;-75
2023/09/21 00:28:24;;;;;;;3.85;2.20;;;;;;;;;;4994003;28;20117;-75
2023/09/21 00:30:59;;;;;;;4.72;2.40;;;;;;;;;;4993631;28;20469;-75
2023/09/21 00:33:25;;;;;;;2.85;1.98;;;;;;;;;;4993657;28;20034;-75
2023/09/21 00:35:51;;;;;;;2.83;2.13;;;;;;;;;;4993527;28;20034;-75
2023/09/21 00:38:18;;;;;;;3.13;2.10;;;;;;;;;;4993506;28;20516;-75
2023/09/21 00:40:44;;;;;;;5.75;2.38;;;;;;;;;;4993718;28;20022;-75
2023/09/21 00:43:11;;;;;;;5.53;2.60;;;;;;;;;;4993416;28;20029;-75
2023/09/21 00:45:37;;;;;;;5.35;2.20;;;;;;;;;;4993443;28;20054;-75
2023/09/21 00:48:09;;;;;;;5.03;2.10;;;;;;;;;;4975893;28;20026;-75
2023/09/21 00:50:36;;;;;;;5.38;2.28;;;;;;;;;;4993070;28;20103;-75
2023/09/21 00:53:04;;;;;;;5.30;2.40;;;;;;;;;;4975871;28;20030;-75
2023/09/21 00:55:31;;;;;;;5.43;2.50;;;;;;;;;;4993559;28;20077;-75
2023/09/21 00:58:03;;;;;;;4.00;2.45;;;;;;;;;;4993118;28;20022;-75
2023/09/21 01:00:30;;;;;;;3.08;2.33;;;;;;;;;;4993124;28;20647;-75
2023/09/21 01:03:00;;;;;;;7.90;2.47;;;;;;;;;;4975591;28;20022;-75
2023/09/21 01:05:26;;;;;;;6.63;2.33;;;;;;;;;;4993193;28;20018;-75
2023/09/21 01:07:55;;;;;;;3.45;2.10;;;;;;;;;;4993073;28;20046;-75
2023/09/21 01:10:24;;;;;;;2.80;2.13;;;;;;;;;;4993352;28;20022;-75
2023/09/21 01:12:51;;;;;;;3.40;2.55;;;;;;;;;;4993140;28;20397;-75
2023/09/21 01:15:17;;;;;;;4.53;2.08;;;;;;;;;;4993390;28;20061;-75
2023/09/21 01:17:47;;;;;;;4.72;2.10;;;;;;;;;;4992933;28;20085;-75
2023/09/21 01:20:22;;;;;;;6.00;2.30;;;;;;;;;;4992178;28;20050;-75
2023/09/21 01:23:04;;;;;;;2.97;1.92;;;;;;;;;;4993242;28;20018;-75
2023/09/21 01:25:30;;;;;;;5.60;2.10;;;;;;;;;;4992843;28;20027;-75
2023/09/21 01:27:56;;;;;;;4.65;2.33;;;;;;;;;;4992948;28;20022;-75
2023/09/21 01:30:26;;;;;;;6.47;2.88;;;;;;;;;;4993208;28;20454;-75
2023/09/21 01:32:52;;;;;;;5.18;2.35;;;;;;;;;;4993187;28;20034;-74
2023/09/21 01:35:19;;;;;;;5.22;2.55;;;;;;;;;;4993027;28;20026;-75
2023/09/21 01:37:46;;;;;;;5.72;2.42;;;;;;;;;;4993228;28;20038;-75
2023/09/21 01:40:16;;;;;;;4.00;2.50;;;;;;;;;;4975322;28;20026;-75
2023/09/21 01:42:48;;;;;;;3.58;2.47;;;;;;;;;;4993214;28;20040;-75
2023/09/21 01:45:15;;;;;;;3.30;2.40;;;;;;;;;;4993039;28;20082;-75
2023/09/21 01:47:41;;;;;;;4.40;2.03;;;;;;;;;;4992849;28;20027;-75
2023/09/21 01:50:09;;;;;;;5.70;2.60;;;;;;;;;;4992668;28;20121;-75
2023/09/21 01:52:35;;;;;;;3.00;2.20;;;;;;;;;;4993042;28;20504;-75
2023/09/21 01:55:05;;;;;;;3.70;1.98;;;;;;;;;;4992729;28;20026;-75
2023/09/21 01:57:32;;;;;;;5.05;2.00;;;;;;;;;;4992638;28;20113;-75
2023/09/21 01:59:58;;;;;;;4.47;2.10;;;;;;;;;;4992901;28;20045;-75
2023/09/21 02:02:24;;;;;;;3.90;2.08;;;;;;;;;;4995283;28;20364;-75
2023/09/21 02:04:50;;;;;;;5.95;2.20;;;;;;;;;;4996569;28;20022;-75
2023/09/21 02:07:16;;;;;;;4.10;2.10;;;;;;;;;;4996350;28;20050;-75
2023/09/21 02:09:42;;;;;;;3.33;2.22;;;;;;;;;;4996254;28;20026;-75
2023/09/21 02:12:08;;;;;;;2.55;2.00;;;;;;;;;;4996241;28;20130;-75
2023/09/21 02:14:34;;;;;;;3.15;2.00;;;;;;;;;;4996214;28;20038;-75
2023/09/21 02:17:00;;;;;;;7.95;2.40;;;;;;;;;;4996047;28;20041;-75
2023/09/21 02:19:30;;;;;;;3.47;1.90;;;;;;;;;;4995776;28;20477;-75
2023/09/21 02:22:00;;;;;;;4.03;1.90;;;;;;;;;;4996397;28;20026;-75
2023/09/21 02:24:26;;;;;;;5.00;2.22;;;;;;;;;;4996004;28;20019;-75
2023/09/21 02:26:53;;;;;;;3.92;1.92;;;;;;;;;;4996378;28;20117;-75
2023/09/21 02:29:19;;;;;;;5.80;2.47;;;;;;;;;;4996229;28;20061;-75
2023/09/21 02:31:45;;;;;;;5.22;2.22;;;;;;;;;;4995848;28;20038;-75
2023/09/21 02:34:12;;;;;;;3.83;2.25;;;;;;;;;;4996130;28;20057;-74
2023/09/21 02:36:38;;;;;;;2.55;2.25;;;;;;;;;;4996029;28;20038;-75
2023/09/21 02:39:10;;;;;;;5.20;2.20;;;;;;;;;;4995897;28;20109;-75
2023/09/21 02:41:36;;;;;;;4.75;2.25;;;;;;;;;;4996097;28;20018;-75
2023/09/21 02:44:03;;;;;;;5.13;2.25;;;;;;;;;;4995652;28;20058;-75
2023/09/21 02:46:30;;;;;;;2.67;1.90;;;;;;;;;;4995899;28;20085;-75
2023/09/21 02:48:57;;;;;;;2.92;2.00;;;;;;;;;;4995860;28;20022;-75
2023/09/21 02:51:23;;;;;;;3.88;2.17;;;;;;;;;;4995829;28;20022;-75
2023/09/21 02:53:49;;;;;;;5.10;2.25;;;;;;;;;;4995728;28;20077;-75
2023/09/21 02:56:20;;;;;;;3.75;2.00;;;;;;;;;;4995602;28;20038;-75
2023/09/21 02:58:46;;;;;;;;;;;;;;;;;;4996162;28;20022;-75
2023/09/21 03:01:13;;;;;;;3.72;2.00;;;;;;;;;;4995259;28;19905;-75
2023/09/21 03:03:39;;;;;;;6.00;2.22;;;;;;;;;;4995664;28;20026;-75
2023/09/21 03:06:05;;;;;;;3.00;2.03;;;;;;;;;;4995365;28;20034;-75
2023/09/21 03:08:31;;;;;;;4.35;2.00;;;;;;;;;;4995203;28;20041;-75
2023/09/21 03:10:57;;;;;;;4.38;2.22;;;;;;;;;;4995213;28;20038;-75
2023/09/21 03:13:23;;;;;;;4.95;1.70;;;;;;;;;;4994856;28;20026;-75
2023/09/21 03:15:50;;;;;;;5.57;1.88;;;;;;;;;;4994999;28;20039;-75
2023/09/21 03:18:18;;;;;;;3.85;1.95;;;;;;;;;;4995022;28;20033;-75
2023/09/21 03:20:45;;;;;;;4.28;1.75;;;;;;;;;;4994540;28;20389;-75
2023/09/21 03:23:12;;;;;;;4.43;2.28;;;;;;;;;;4995210;28;20408;-75
2023/09/21 03:25:42;;;;;;;3.95;1.88;;;;;;;;;;4994905;28;20045;-75
2023/09/21 03:28:15;;;;;;;6.07;1.73;;;;;;;;;;4994925;28;20496;-75
2023/09/21 03:30:45;;;;;;;5.07;1.95;;;;;;;;;;4993441;28;20080;-75
2023/09/21 03:33:12;;;;;;;2.80;2.17;;;;;;;;;;4994727;28;20033;-75
2023/09/21 03:35:38;;;;;;;3.67;2.13;;;;;;;;;;4994577;28;20026;-75
2023/09/21 03:38:12;;;;;;;3.33;2.13;;;;;;;;;;4994651;28;20042;-75
2023/09/21 03:40:42;;;;;;;2.55;1.60;;;;;;;;;;4993324;28;20042;-75
2023/09/21 03:43:10;;;;;;;4.07;1.77;;;;;;;;;;4993218;28;20361;-75
2023/09/21 03:45:38;;;;;;;5.85;2.10;;;;;;;;;;4994811;28;20023;-75
2023/09/21 03:48:06;;;;;;;3.65;2.20;;;;;;;;;;4994820;28;20073;-75
2023/09/21 03:50:32;;;;;;;4.47;2.30;;;;;;;;;;4994524;28;20088;-75
2023/09/21 03:53:05;;;;;;;3.80;2.35;;;;;;;;;;4994306;28;20397;-75
2023/09/21 03:55:34;;;;;;;3.65;2.30;;;;;;;;;;4994320;28;20026;-75
2023/09/21 03:58:01;;;;;;;4.70;2.25;;;;;;;;;;4994291;28;20042;-75
2023/09/21 04:00:35;;;;;;;3.53;2.60;;;;;;;;;;4994304;28;20022;-75
2023/09/21 04:03:03;;;;;;;3.78;2.78;;;;;;;;;;4994457;28;20018;-75
2023/09/21 04:05:31;;;;;;;3.97;2.78;;;;;;;;;;4994355;28;20026;-75
2023/09/21 04:07:57;;;;;;;4.70;2.40;;;;;;;;;;4994272;28;20054;-75
2023/09/21 04:10:23;;;;;;;4.03;2.50;;;;;;;;;;4994163;28;20027;-75
2023/09/21 04:12:55;;;;;;;2.63;1.90;;;;;;;;;;4993986;28;20096;-75
2023/09/21 04:15:28;;;;;;;3.78;2.40;;;;;;;;;;4994027;28;20042;-75
2023/09/21 04:17:54;;;;;;;3.80;2.20;;;;;;;;;;4993674;28;20070;-75
2023/09/21 04:20:21;;;;;;;5.78;2.22;;;;;;;;;;5003545;28;20056;-75
2023/09/21 04:22:49;;;;;;;5.07;2.35;;;;;;;;;;5013452;28;20515;-75
2023/09/21 04:25:16;;;;;;;4.30;2.50;;;;;;;;;;5012969;28;20389;-75
2023/09/21 04:27:46;;;;;;;2.80;2.42;;;;;;;;;;5013486;28;20412;-75
2023/09/21 04:30:19;;;;;;;5.45;2.85;;;;;;;;;;5013274;28;20029;-75
2023/09/21 04:32:46;;;;;;;4.80;3.25;;;;;;;;;;5013028;28;20677;-75
2023/09/21 04:35:12;;;;;;;4.78;2.70;;;;;;;;;;5013168;28;20061;-75
2023/09/21 04:37:38;;;;;;;4.72;2.85;;;;;;;;;;5013092;28;20088;-75
2023/09/21 04:40:05;;;;;;;5.22;3.05;;;;;;;;;;5013133;28;20018;-75
2023/09/21 04:42:34;;;;;;;5.53;3.70;;;;;;;;;;5012917;28;20049;-75
2023/09/21 04:45:01;;;;;;;7.65;3.40;;;;;;;;;;5013316;28;20032;-75
2023/09/21 04:47:27;;;;;;;3.97;2.63;;;;;;;;;;5013047;28;20108;-75
2023/09/21 04:49:56;;;;;;;3.60;2.78;;;;;;;;;;5013286;28;20100;-75
2023/09/21 04:52:22;;;;;;;5.75;3.05;;;;;;;;;;5012944;28;20425;-75
2023/09/21 04:54:51;;;;;;;5.75;3.30;;;;;;;;;;5012655;28;20044;-75
2023/09/21 04:57:18;;;;;;;8.95;3.50;;;;;;;;;;5012863;28;20048;-75
2023/09/21 04:59:45;;;;;;;6.32;3.50;;;;;;;;;;5012354;28;20022;-75
2023/09/21 05:02:11;;;;;;;6.90;3.50;;;;;;;;;;5012272;28;20028;-75
2023/09/21 05:04:37;;;;;;;7.20;3.92;;;;;;;;;;5012195;28;20026;-75
2023/09/21 05:07:05;;;;;;;6.93;3.17;;;;;;;;;;5012032;28;20052;-75
2023/09/21 05:09:32;;;;;;;6.93;3.50;;;;;;;;;;5012308;28;20026;-75
2023/09/21 05:11:58;;;;;;;5.30;3.65;;;;;;;;;;5012186;28;20480;-75
2023/09/21 05:14:25;;;;;;;5.32;3.78;;;;;;;;;;5012774;28;20018;-75
2023/09/21 05:16:56;;;;;;;4.90;3.58;;;;;;;;;;5012643;28;20568;-75
2023/09/21 05:19:22;;;;;;;5.60;3.25;;;;;;;;;;5012449;28;20046;-75
2023/09/21 05:21:48;;;;;;;5.43;3.42;;;;;;;;;;5012844;28;20384;-75
2023/09/21 05:24:14;;;;;;;6.13;3.80;;;;;;;;;;5012540;28;20026;-75
2023/09/21 05:26:40;;;;;;;7.10;3.67;;;;;;;;;;5012226;28;20026;-75
2023/09/21 05:29:06;;;;;;;5.22;3.33;;;;;;;;;;5012360;28;20030;-75
2023/09/21 05:31:32;;;;;;;5.78;3.75;;;;;;;;;;5012606;28;20085;-74
2023/09/21 05:34:00;;;;;;;7.53;3.60;;;;;;;;;;5012509;28;20373;-74
2023/09/21 05:36:26;;;;;;;9.48;3.80;;;;;;;;;;5015719;28;20432;-75
2023/09/21 05:38:52;;;;;;;7.45;4.15;;;;;;;;;;5015558;28;20029;-75
2023/09/21 05:41:18;;;;;;;5.53;3.45;;;;;;;;;;5015395;28;20030;-75
2023/09/21 05:43:44;;;;;;;5.75;3.72;;;;;;;;;;5015987;28;20026;-75
2023/09/21 05:46:11;;;;;;;8.05;4.22;;;;;;;;;;5016315;28;20036;-75
2023/09/21 05:48:38;;;;;;;10.40;3.85;;;;;;;;;;5016514;28;20029;-74
2023/09/21 05:51:04;;;;;;;4.80;3.60;;;;;;;;;;5016478;28;20526;-75
2023/09/21 05:53:31;;;;;;;5.72;3.47;;;;;;;;;;5015822;28;20033;-75
2023/09/21 05:55:57;;;;;;;6.63;3.72;;;;;;;;;;5015924;28;20466;-75
2023/09/21 05:58:24;;;;;;;6.47;3.70;;;;;;;;;;5016157;28;20018;-75
2023/09/21 06:00:51;;;;;;;9.27;4.10;;;;;;;;;;5016048;28;20100;-75
2023/09/21 06:03:17;;;;;;;8.95;4.45;;;;;;;;;;5016271;28;20040;-75
2023/09/21 06:05:45;;;;;;;12.85;4.32;;;;;;;;;;5015968;28;20377;-75
2023/09/21 06:08:11;;;;;;;4.88;4.22;;;;;;;;;;5016100;28;20033;-75
2023/09/21 06:10:37;;;;;;;12.18;3.92;;;;;;;;;;5015833;28;20021;-75
2023/09/21 06:13:07;;;;;;;6.88;3.90;;;;;;;;;;5015801;28;20030;-75
2023/09/21 06:15:33;;;;;;;4.93;4.13;;;;;;;;;;5015797;28;20388;-75
2023/09/21 06:18:00;;;;;;;7.13;4.47;;;;;;;;;;5015673;28;20030;-75
2023/09/21 06:20:26;;;;;;;6.97;3.97;;;;;;;;;;5015473;28;20113;-75
2023/09/21 06:22:52;;;;;;;6.63;4.05;;;;;;;;;;5015658;28;20053;-75
2023/09/21 06:25:20;;;;;;;6.03;4.00;;;;;;;;;;5015635;28;20076;-75
2023/09/21 06:27:46;;;;;;;7.53;4.07;;;;;;;;;;5015949;28;20464;-75
2023/09/21 06:30:15;;;;;;;7.88;3.83;;;;;;;;;;5001534;28;20528;-75
2023/09/21 06:32:41;;;;;;;6.05;3.58;;;;;;;;;;4997421;28;20037;-75
2023/09/21 06:35:08;;;;;;;7.38;1.40;;;;;;;;;;4996004;28;20022;-75
2023/09/21 06:37:35;;;;;;;4.40;0.77;;;;;;;;;;4995935;28;20022;-75
2023/09/21 06:40:02;;;;;;;16.67;1.33;;;;;;;;;;4995428;28;20015;-75
2023/09/21 06:42:28;;;;;;;6.07;1.10;;;;;;;;;;4996023;28;20058;-75
2023/09/21 06:44:54;;;;;;;3.72;1.02;;;;;;;;;;4995840;28;20026;-75
2023/09/21 06:47:28;;;;;;;4.88;0.75;;;;;;;;;;4995316;28;20058;-75
2023/09/21 06:49:54;;;;;;;2.45;0.70;;;;;;;;;;4995687;28;20381;-75
2023/09/21 06:52:21;;;;;;;2.72;0.98;;;;;;;;;;4995595;28;20450;-75
2023/09/21 06:54:49;;;;;;;3.67;0.80;;;;;;;;;;4977983;28;20037;-75
2023/09/21 06:57:16;;;;;;;3.58;1.10;;;;;;;;;;4995674;28;20118;-75
2023/09/21 06:59:42;;;;;;;3.42;0.93;;;;;;;;;;4995409;28;20050;-75
2023/09/21 07:02:08;;;;;;;6.40;0.88;;;;;;;;;;4995836;28;20372;-75
2023/09/21 07:04:34;;;;;;;4.55;0.70;;;;;;;;;;4995546;28;20488;-75
2023/09/21 07:07:05;;;;;;;2.08;0.68;;;;;;;;;;4996564;28;20034;-75
2023/09/21 07:09:38;;;;;;;2.33;0.60;;;;;;;;;;4993285;28;20088;-75
2023/09/21 07:12:05;;;;;;;1.50;0.60;;;;;;;;;;5004336;28;20423;-75
2023/09/21 07:14:32;;;;;;;2.25;0.63;;;;;;;;;;5014972;28;20018;-75
2023/09/21 07:16:59;;;;;;;2.33;0.50;;;;;;;;;;5014760;28;20061;-75
2023/09/21 07:19:25;;;;;;;1.08;0.60;;;;;;;;;;5014361;28;20065;-75
2023/09/21 07:21:51;;;;;;;2.40;0.47;;;;;;;;;;5014808;28;20108;-75
2023/09/21 07:24:17;;;;;;;1.25;0.70;;;;;;;;;;5014578;28;20037;-75
2023/09/21 07:26:45;;;;;;;1.90;0.77;;;;;;;;;;5014426;28;20033;-75
2023/09/21 07:29:12;;;;;;;3.17;1.00;;;;;;;;;;5014830;28;20459;-75
2023/09/21 07:31:38;;;;;;;1.30;0.50;;;;;;;;;;5014490;28;20100;-75
2023/09/21 07:34:06;;;;;;;3.10;0.80;;;;;;;;;;5014701;28;20030;-75
2023/09/21 07:36:35;;;;;;;1.40;0.70;;;;;;;;;;5014664;28;20104;-75
2023/09/21 07:39:03;;;;;;;3.28;0.95;;;;;;;;;;5014792;28;20014;-75
2023/09/21 07:41:29;;;;;;;1.38;0.60;;;;;;;;;;4997286;28;20030;-75
2023/09/21 07:43:55;;;;;;;3.05;0.68;;;;;;;;;;5014382;28;20057;-75
2023/09/21 07:46:21;;;;;;;1.92;0.88;;;;;;;;;;5014622;28;20064;-75
2023/09/21 07:48:49;;;;;;;1.30;0.57;;;;;;;;;;5014236;28;20372;-75
2023/09/21 07:51:16;;;;;;;2.75;0.60;;;;;;;;;;5014179;28;20032;-75
2023/09/21 07:53:43;;;;;;;3.50;0.60;;;;;;;;;;5014206;28;20033;-75
2023/09/21 07:56:12;;;;;;;1.10;0.85;;;;;;;;;;5013869;28;20128;-75
2023/09/21 07:58:38;;;;;;;3.22;0.70;;;;;;;;;;5013560;28;20028;-76
2023/09/21 08:01:04;;;;;;;1.30;0.60;;;;;;;;;;5013991;28;20014;-75
2023/09/21 08:03:32;;;;;;;0.40;0.30;;;;;;;;;;5014004;28;20026;-75
2023/09/21 08:06:01;;;;;;;1.77;0.80;;;;;;;;;;5013764;28;20026;-75
2023/09/21 08:08:28;;;;;;;1.17;0.80;;;;;;;;;;5013840;28;20550;-75
2023/09/21 08:10:54;;;;;;;2.05;0.60;;;;;;;;;;5013912;28;20038;-75
2023/09/21 08:13:26;;;;;;;2.45;0.82;;;;;;;;;;5013607;28;20022;-75
2023/09/21 08:15:55;;;;;;;2.35;0.70;;;;;;;;;;5013799;28;20022;-75
2023/09/21 08:18:21;;;;;;;0.75;0.50;;;;;;;;;;5013636;28;20053;-75
2023/09/21 08:20:47;;;;;;;1.27;0.63;;;;;;;;;;5013301;28;20056;-75
2023/09/21 08:23:14;;;;;;;2.13;0.70;;;;;;;;;;5013464;28;20030;-75
2023/09/21 08:25:40;;;;;;;1.67;0.68;;;;;;;;;;5013950;28;20491;-75
2023/09/21 08:28:07;;;;;;;2.88;0.80;;;;;;;;;;5013381;28;20029;-75
2023/09/21 08:30:33;;;;;;;2.30;0.90;;;;;;;;;;4993994;28;20030;-75
2023/09/21 08:32:59;;;;;;;2.88;0.70;;;;;;;;;;4993777;28;20108;-75
2023/09/21 08:35:25;;;;;;;3.20;0.73;;;;;;;;;;4993649;28;20647;-75
2023/09/21 08:37:51;;;;;;;2.38;0.85;;;;;;;;;;4993849;28;20161;-75
2023/09/21 08:40:19;;;;;;;1.75;0.80;;;;;;;;;;4992339;28;20098;-75
2023/09/21 08:42:46;;;;;;;1.30;0.80;;;;;;;;;;4993590;28;20049;-75
2023/09/21 08:45:13;;;;;;;1.52;0.98;;;;;;;;;;4993487;28;20022;-75
2023/09/21 08:47:40;;;;;;;2.15;0.60;;;;;;;;;;4993390;28;20054;-75
2023/09/21 08:50:09;;;;;;;2.53;0.90;;;;;;;;;;4993493;28;20038;-75
2023/09/21 08:52:36;;;;;;;2.33;0.80;;;;;;;;;;4993563;28;20041;-75
2023/09/21 08:55:02;;;;;;;2.08;0.70;;;;;;;;;;4993341;28;20090;-75
2023/09/21 08:57:30;;;;;;;1.52;0.68;;;;;;;;;;4993293;28;20088;-75
2023/09/21 09:00:00;;;;;;;1.50;1.02;;;;;;;;;;4993338;28;20369;-75
2023/09/21 09:02:26;;;;;;;;;;;;;;;;;;4993897;28;20450;-75
2023/09/21 09:04:53;;;;;;;2.10;0.90;;;;;;;;;;4993248;28;19913;-75
2023/09/21 09:07:19;;;;;;;2.40;0.70;;;;;;;;;;4993211;28;20041;-75
2023/09/21 09:09:46;;;;;;;1.42;0.65;;;;;;;;;;4993005;28;20035;-75
2023/09/21 09:12:21;;;;;;;3.20;0.88;;;;;;;;;;4993110;28;20077;-75
2023/09/21 09:14:48;;;;;;;1.50;0.88;;;;;;;;;;5000256;28;20064;-76
2023/09/21 09:17:15;;;;;;;2.33;0.70;;;;;;;;;;5012900;28;20095;-75
2023/09/21 09:19:41;;;;;;;1.13;0.85;;;;;;;;;;5012268;28;20050;-76
2023/09/21 09:22:10;;;;;;;1.40;1.08;;;;;;;;;;5012941;28;20061;-75
2023/09/21 09:24:37;;;;;;;2.70;1.00;;;;;;;;;;5012995;28;20084;-75
2023/09/21 09:27:03;;;;;;;1.45;0.90;;;;;;;;;;5012913;28;20021;-75
2023/09/21 09:29:30;;;;;;;2.10;1.08;;;;;;;;;;5012644;28;20049;-75
2023/09/21 09:31:56;;;;;;;1.50;0.65;;;;;;;;;;5012481;28;20018;-75
2023/09/21 09:34:27;;;;;;;1.75;0.80;;;;;;;;;;5012555;28;20076;-75
2023/09/21 09:36:55;;;;;;;1.45;0.77;;;;;;;;;;5012478;28;20127;-75
2023/09/21 09:39:23;;;;;;;3.72;0.93;;;;;;;;;;5012834;28;20464;-75
2023/09/21 09:41:50;;;;;;;3.08;1.00;;;;;;;;;;5012843;28;20103;-75
2023/09/21 09:44:18;;;;;;;2.10;0.90;;;;;;;;;;5012436;28;20483;-75
2023/09/21 09:46:46;;;;;;;1.35;1.05;;;;;;;;;;5012469;28;20037;-75
2023/09/21 09:49:13;;;;;;;2.22;1.00;;;;;;;;;;5012279;28;20022;-75
2023/09/21 09:51:46;;;;;;;3.45;1.08;;;;;;;;;;5012354;28;20041;-75
2023/09/21 09:54:16;;;;;;;2.10;1.20;;;;;;;;;;5012383;28;20557;-75
2023/09/21 09:56:42;;;;;;;2.40;1.10;;;;;;;;;;5012562;28;20034;-75
2023/09/21 09:59:12;;;;;;;2.03;1.08;;;;;;;;;;5012625;28;20026;-75
2023/09/21 10:01:39;;;;;;;3.75;1.25;;;;;;;;;;5012323;28;20119;-76
2023/09/21 10:04:10;;;;;;;2.88;0.88;;;;;;;;;;5012434;28;20021;-75
2023/09/21 10:06:36;;;;;;;4.40;1.20;;;;;;;;;;5012221;28;20026;-76
2023/09/21 10:09:10;;;;;;;2.63;0.73;;;;;;;;;;5012220;28;20072;-75
2023/09/21 10:11:42;;;;;;;3.90;1.08;;;;;;;;;;4992727;28;20026;-75
2023/09/21 10:14:11;;;;;;;4.35;1.05;;;;;;;;;;4992566;28;20366;-75
2023/09/21 10:16:49;;;;;;;3.25;0.77;;;;;;;;;;4992834;28;20023;-75
2023/09/21 10:19:18;;;;;;;2.30;1.02;;;;;;;;;;4992316;28;20354;-76
2023/09/21 10:21:45;;;;;;;2.20;0.80;;;;;;;;;;4992886;28;20046;-75
2023/09/21 10:24:16;;;;;;;2.58;0.90;;;;;;;;;;4996440;28;20022;-75
2023/09/21 10:26:49;;;;;;;2.10;0.70;;;;;;;;;;4996313;28;20032;-76
2023/09/21 10:29:19;;;;;;;4.30;0.98;;;;;;;;;;4996340;28;20030;-75
2023/09/21 10:31:46;;;;;;;3.22;1.05;;;;;;;;;;4996229;28;20346;-75
2023/09/21 10:34:19;;;;;;;4.47;1.30;;;;;;;;;;4995866;28;20022;-75
2023/09/21 10:36:46;;;;;;;1.98;0.73;;;;;;;;;;5012705;28;20026;-75
2023/09/21 10:39:12;;;;;;;3.22;1.00;;;;;;;;;;5015437;28;20026;-75
2023/09/21 10:41:45;;;;;;;2.75;0.68;;;;;;;;;;5015613;28;20453;-75
2023/09/21 10:44:12;;;;;;;1.60;0.70;;;;;;;;;;5015543;28;20028;-75
2023/09/21 10:46:38;;;;;;;3.03;0.88;;;;;;;;;;5015328;28;20514;-75
2023/09/21 10:49:05;;;;;;;2.50;0.70;;;;;;;;;;5015081;28;20021;-75
2023/09/21 10:51:31;;;;;;;2.17;1.08;;;;;;;;;;5015457;28;20033;-75
2023/09/21 10:53:59;;;;;;;2.40;0.77;;;;;;;;;;5015178;28;20069;-75
2023/09/21 10:56:25;;;;;;;2.95;1.00;;;;;;;;;;5015235;28;20517;-75
2023/09/21 10:58:51;;;;;;;2.30;0.73;;;;;;;;;;5014969;28;20080;-75
2023/09/21 11:01:17;;;;;;;2.22;0.95;;;;;;;;;;5015390;28;20065;-75
2023/09/21 11:03:47;;;;;;;2.85;0.90;;;;;;;;;;5014981;28;20018;-75
2023/09/21 11:06:16;;;;;;;2.15;0.90;;;;;;;;;;5015065;28;20033;-75
2023/09/21 11:08:42;;;;;;;2.03;0.80;;;;;;;;;;5015227;28;20696;-75
2023/09/21 11:11:08;;;;;;;1.33;0.85;;;;;;;;;;5015268;28;20109;-75
2023/09/21 11:13:34;;;;;;;3.15;1.20;;;;;;;;;;5014852;28;20029;-75
2023/09/21 11:16:01;;;;;;;1.23;0.90;;;;;;;;;;5014609;28;20030;-75
2023/09/21 11:18:29;;;;;;;1.73;0.95;;;;;;;;;;4997140;28;20014;-75
2023/09/21 11:20:56;;;;;;;1.13;0.80;;;;;;;;;;5014207;28;20042;-75
2023/09/21 11:23:22;;;;;;;1.02;0.80;;;;;;;;;;5014699;28;20040;-75
2023/09/21 11:25:49;;;;;;;2.97;0.80;;;;;;;;;;5014619;28;20034;-75
2023/09/21 11:28:16;;;;;;;2.80;0.90;;;;;;;;;;5014692;28;20030;-75
2023/09/21 11:30:42;;;;;;;1.80;0.90;;;;;;;;;;5014820;28;20037;-75
2023/09/21 11:33:10;;;;;;;1.00;0.70;;;;;;;;;;5014285;28;20669;-75
2023/09/21 11:35:36;;;;;;;3.47;0.98;;;;;;;;;;5014691;28;20030;-75
2023/09/21 11:38:03;;;;;;;2.22;0.60;;;;;;;;;;5014267;28;20034;-75
2023/09/21 11:40:31;;;;;;;0.90;0.60;;;;;;;;;;4977086;28;20473;-75
2023/09/21 11:42:59;;;;;;;1.38;0.77;;;;;;;;;;4995017;28;20026;-75
2023/09/21 11:45:25;;;;;;;2.20;0.90;;;;;;;;;;4977264;28;20112;-75
2023/09/21 11:47:58;;;;;;;2.47;0.80;;;;;;;;;;4977050;28;20081;-75
2023/09/21 11:50:25;;;;;;;2.35;0.80;;;;;;;;;;4994449;28;20022;-75
2023/09/21 11:52:56;;;;;;;1.90;0.80;;;;;;;;;;4994440;28;20504;-75
2023/09/21 11:55:23;;;;;;;1.30;0.70;;;;;;;;;;4994651;28;20049;-75
2023/09/21 11:57:49;;;;;;;1.58;0.85;;;;;;;;;;4994357;28;20031;-75
2023/09/21 12:00:26;;;;;;;2.28;0.98;;;;;;;;;;4994387;28;20505;-75
2023/09/21 12:02:52;;;;;;;2.97;0.90;;;;;;;;;;4994570;28;20026;-75
2023/09/21 12:05:20;;;;;;;1.75;0.80;;;;;;;;;;5012596;28;20022;-75
2023/09/21 12:07:46;;;;;;;3.60;0.90;;;;;;;;;;5013935;28;20449;-75
2023/09/21 12:10:14;;;;;;;1.95;1.02;;;;;;;;;;5013673;28;20030;-75
2023/09/21 12:12:42;;;;;;;1.38;1.10;;;;;;;;;;5013994;28;20503;-75
2023/09/21 12:15:10;;;;;;;1.55;0.90;;;;;;;;;;5013882;28;20015;-75
2023/09/21 12:17:36;;;;;;;1.27;0.70;;;;;;;;;;5013852;28;20030;-75
2023/09/21 12:20:11;;;;;;;1.52;0.73;;;;;;;;;;5012890;28;20458;-75
2023/09/21 12:22:38;;;;;;;1.60;0.75;;;;;;;;;;5013910;28;20076;-75
2023/09/21 12:25:06;;;;;;;1.60;0.80;;;;;;;;;;5013498;28;20053;-75
2023/09/21 12:27:33;;;;;;;2.28;0.90;;;;;;;;;;5013619;28;20025;-75
2023/09/21 12:29:59;;;;;;;2.63;0.90;;;;;;;;;;5013533;28;20026;-75
2023/09/21 12:32:27;;;;;;;1.35;0.90;;;;;;;;;;5013596;28;20022;-75
2023/09/21 12:34:54;;;;;;;1.90;0.70;;;;;;;;;;5013210;28;20026;-75
2023/09/21 12:37:21;;;;;;;1.77;0.80;;;;;;;;;;4995436;28;20037;-75
2023/09/21 12:39:47;;;;;;;2.92;0.85;;;;;;;;;;5013293;28;20076;-75
2023/09/21 12:42:14;;;;;;;1.70;1.00;;;;;;;;;;5013149;28;20026;-75
2023/09/21 12:44:40;;;;;;;3.88;1.23;;;;;;;;;;5012988;28;20022;-75
2023/09/21 12:47:09;;;;;;;4.55;1.00;;;;;;;;;;5012854;28;20041;-75
2023/09/21 12:49:39;;;;;;;1.98;0.93;;;;;;;;;;5013534;28;20163;-75
2023/09/21 12:52:05;;;;;;;1.98;1.15;;;;;;;;;;5012703;28;20020;-75
2023/09/21 12:54:31;;;;;;;2.38;1.20;;;;;;;;;;5012799;28;20022;-75
2023/09/21 12:57:02;;;;;;;2.42;0.90;;;;;;;;;;5011423;28;20376;-76
2023/09/21 12:59:29;;;;;;;1.95;0.90;;;;;;;;;;5013303;28;20388;-74
2023/09/21 13:01:55;;;;;;;0.98;0.73;;;;;;;;;;4995201;28;20120;-74
2023/09/21 13:04:21;;;;;;;1.00;0.65;;;;;;;;;;5012069;28;20049;-74
2023/09/21 13:06:47;;;;;;;2.95;1.00;;;;;;;;;;5012936;28;20030;-74
2023/09/21 13:09:13;;;;;;;1.70;0.80;;;;;;;;;;5012889;28;20033;-74
2023/09/21 13:11:40;;;;;;;1.10;0.70;;;;;;;;;;5012863;28;20021;-74
2023/09/21 13:14:07;;;;;;;2.45;0.85;;;;;;;;;;5012587;28;20132;-74
2023/09/21 13:16:34;;;;;;;1.38;1.02;;;;;;;;;;5012952;28;20052;-74
2023/09/21 13:19:00;;;;;;;2.20;0.80;;;;;;;;;;5012920;28;20032;-74
2023/09/21 13:21:27;;;;;;;1.83;0.60;;;;;;;;;;5012333;28;20124;-74
2023/09/21 13:23:53;;;;;;;1.17;0.45;;;;;;;;;;5012833;28;20013;-74
2023/09/21 13:26:19;;;;;;;0.73;0.45;;;;;;;;;;5012558;28;20427;-75
2023/09/21 13:28:46;;;;;;;1.98;0.88;;;;;;;;;;5012454;28;20416;-75
2023/09/21 13:31:12;;;;;;;1.77;0.65;;;;;;;;;;5012822;28;20028;-74
2023/09/21 13:33:39;;;;;;;2.38;0.88;;;;;;;;;;5012517;28;20054;-74
2023/09/21 13:36:05;;;;;;;1.52;0.68;;;;;;;;;;5012507;28;20097;-74
2023/09/21 13:38:31;;;;;;;1.02;0.90;;;;;;;;;;5012520;28;20022;-75
2023/09/21 13:40:57;;;;;;;0.80;0.70;;;;;;;;;;5012434;28;20044;-74
2023/09/21 13:43:25;;;;;;;1.77;0.80;;;;;;;;;;5012315;28;20026;-74
2023/09/21 13:45:51;;;;;;;1.80;0.90;;;;;;;;;;5012980;28;20022;-74
2023/09/21 13:48:19;;;;;;;2.25;0.65;;;;;;;;;;5012384;28;20021;-75
2023/09/21 13:50:46;;;;;;;1.55;0.80;;;;;;;;;;5012330;28;20032;-75
2023/09/21 13:53:12;;;;;;;1.73;0.80;;;;;;;;;;5012473;28;20029;-75
2023/09/21 13:55:38;;;;;;;0.90;0.60;;;;;;;;;;5012493;28;20042;-75
2023/09/21 13:58:04;;;;;;;1.83;0.63;;;;;;;;;;5014511;28;20105;-74
2023/09/21 14:00:33;;;;;;;1.23;0.60;;;;;;;;;;5015534;28;20071;-75
2023/09/21 14:02:59;;;;;;;1.38;0.80;;;;;;;;;;5013870;28;20030;-76
2023/09/21 14:05:26;;;;;;;0.77;0.60;;;;;;;;;;5016265;28;20431;-75
2023/09/21 14:07:52;;;;;;;1.30;0.77;;;;;;;;;;5015977;28;20026;-75
2023/09/21 14:10:18;;;;;;;3.47;0.93;;;;;;;;;;4988633;28;20450;-75
2023/09/21 14:12:44;;;;;;;1.10;0.85;;;;;;;;;;5012797;28;20022;-75
2023/09/21 14:15:10;;;;;;;2.20;1.00;;;;;;;;;;5015633;28;20022;-75
2023/09/21 14:17:39;;;;;;;0.95;0.60;;;;;;;;;;5015474;28;20109;-75
2023/09/21 14:20:06;;;;;;;1.17;1.05;;;;;;;;;;5015283;28;20066;-75
2023/09/21 14:22:32;;;;;;;2.63;0.93;;;;;;;;;;5015573;28;20383;-75
2023/09/21 14:24:58;;;;;;;1.33;1.17;;;;;;;;;;5015821;28;20026;-75
2023/09/21 14:27:24;;;;;;;1.40;1.20;;;;;;;;;;5015483;28;20369;-75
2023/09/21 14:29:50;;;;;;;2.22;1.25;;;;;;;;;;5015478;28;20080;-75
2023/09/21 14:32:16;;;;;;;1.10;0.93;;;;;;;;;;4997761;28;20101;-75
2023/09/21 14:34:42;;;;;;;1.67;1.38;;;;;;;;;;5015161;28;20144;-75
2023/09/21 14:37:09;;;;;;;2.20;1.25;;;;;;;;;;5015264;28;20037;-75
2023/09/21 14:39:35;;;;;;;2.50;2.00;;;;;;;;;;5015665;28;20100;-75
2023/09/21 14:42:01;;;;;;;2.67;1.45;;;;;;;;;;5016219;28;20022;-75
2023/09/21 14:44:28;;;;;;;1.40;1.10;;;;;;;;;;5015847;28;20033;-76